map of PUF home
PUF - Airport
Location
City:  Pau Pyrénées, Aquitaine, France
Near (Alt.):Uzein
ICAO:LFBP
IATA:PUF

Details
Type:Airport (Aerodrome, Airfield)
Use:Public/Civil
Latitude:43°22'48"N (43.380000)
Longitude:0°25'07"W (-0.418610)
Elevation:617 ft (188 m)
Variation:0.39°E (WMM2015v2 magnetic declination)
0.16° annual change
Runways:1
Longest:8202 × 148 ft (2500 × 45 m), paved

Time
Time Zone:UTC+1 (DST+2)
Local Time:

Weather
METAR:LFBP 041400Z AUTO VRB02KT 9999 BKN084 BKN240 09/M04 Q1027 NOSIG
TAF:LFBP 041100Z 0412/0512 12005KT CAVOK
TEMPO 0416/0418 -RA OVC040
BECMG 0418/0419 21010KT 4000 -RA OVC020
BECMG 0422/0424 27010KT
TEMPO 0422/0509 2000 RA OVC010

Related Locations
Nearby:
Farthest:CHT: 12240 mi / 19698 km
Waitangi [Tuuta], CIT, NZ

Find:

   beyond  
but within

Other Information
Maps:
NOTAMs:
Links:
Sources:

  
  • flag of France
  • flag of Aquitaine
  

Sectional Chart

Flight Planning
at skyvector.com

Satellite Image

Google Maps Satellite view

 

Copyright © 2004-2019 Karl L. Swartz. All rights reserved.
The Great Circle Mapper name and logo are trademarks of the Great Circle Mapper.
All other trademarks mentioned herein belong to their respective owners.
Please see credits for attibutions and further copyright information.

  Follow gcmap on Facebook Follow gcmap on Twitter GCmap on LinkedIn

hCard Microformat

Geo Microformat